Chesterfield, MO

10:21 PM CST on February 09, 2016 (GMT -0600)
Spirit Of Saint Louis | | Change Station
CLOSE
Current Station
Airport
Location: Spirit of St Louis,
Elevation: 463 ft
Nearby Weather Stations

Elev 463 ft 38.66 °N, 90.66 °W | Updated 27 minutes ago

Scattered Clouds
Scattered Clouds
22 °F
Feels Like 10 °F
N
12
Wind Variable Wind from WNW
Gusts 22 mph

Today
High -- | Low -- °F
--% Chance of Precip.
Yesterday
High -- | Low -- °F
Precip. -- in
Pressure 30.17 in
Visibility 10.0 miles
Clouds Scattered Clouds 5000 ft
Windchill 10 °F
Dew Point 7 °F
Humidity 53%
Rainfall 0.00 in
Snow Depth Not available.
7:00 AM 5:33 PM
Waxing Crescent, 3% visible
METAR KSUS 100354Z 30010G19KT 10SM SCT050 M06/M14 A3014 RMK AO2 PK WND 31029/0307 SLP217 T10561139
Pressure 30.17 in
Visibility 10.0 miles
Clouds Scattered Clouds 5000 ft
Windchill 10 °F
Dew Point 7 °F
Humidity 53%
Rainfall 0.00 in
Snow Depth Not available.
7:00 AM 5:33 PM
Waxing Crescent, 3% visible
METAR KSUS 100354Z 30010G19KT 10SM SCT050 M06/M14 A3014 RMK AO2 PK WND 31029/0307 SLP217 T10561139

10-Day Weather Forecast

Almanac

Astronomy

Feb. 09, 2016 Rise Set
Actual Time
Civil Twilight
Nautical Twilight
Astronomical Twilight
Moon
Length of Visible Light
Length of Day
Tomorrow will be .
, % of the Moon is Illuminated

Today's Extremes

State Highs State Lows

Community

WunderPhotos

Upload Photos

1,891,799 photos uploaded!

WunderBlog® & News

Nearby

Air Quality

  Air Quality AQ Index Pollutant
Not available.

Snow Depth

Station Depth Elevation

Earthquake Activity

City Distance Mag. Time & Date
Minimum magnitude displayed is 2.5.

Coastal Water Temperatures

Place Temperature

Stations

Nearby Weather Stations

Station Location Temp. Windchill Dew Point Humidity Wind Precip. Elev Updated Type
                   

Watches & Warnings

There are currently no watches in effect.